KLBE/LBE METAR and TAF weather

Enter ICAO airport designator
Station Type Date Time Source
KLBE METAR 2021/05/15 01:47 UTC NOAA

KLBE 150147Z 00000KT 10SM CLR 13/02 A3026


Station Type Date Time Source
KLBE Decoded METAR 2021/05/15 01:47 UTC NOAA

Latrobe / Westmorland, PA, United States (KLBE) 40-17N 079-24W
May 14, 2021 - 09:47 PM EDT / 2021.05.15 0147 UTC
Wind: Calm:0
Visibility: 10 mile(s):0
Sky conditions: clear
Temperature: 55 F (13 C)
Dew Point: 35 F (2 C)
Relative Humidity: 47%
Pressure (altimeter): 30.26 in. Hg (1024 hPa)
ob: KLBE 150147Z 00000KT 10SM CLR 13/02 A3026
cycle: 2

Station Type Date Time Source
KLBE TAF 2021/05/14 18:21 UTC NOAA

TAF KLBE 141720Z 1418/1518 34005KT P6SM SCT100
FM142300 00000KT P6SM SKC

Example: see airport list